createdAt,value
2022-11-05T00:00:19.048Z,7.00
2022-11-05T00:03:04.813Z,7.70
2022-11-05T00:05:50.682Z,7.90
2022-11-05T00:08:50.224Z,7.80
2022-11-05T00:11:18.459Z,8.00
2022-11-05T00:14:04.314Z,8.00
2022-11-05T00:16:46.740Z,7.90
2022-11-05T00:19:15.010Z,8.10
2022-11-05T00:22:00.765Z,8.30
2022-11-05T00:24:46.602Z,8.30
2022-11-05T00:27:13.974Z,8.40
2022-11-05T00:29:41.235Z,8.40
2022-11-05T00:32:08.438Z,8.50
2022-11-05T00:34:35.667Z,8.50
2022-11-05T00:37:02.875Z,8.70
2022-11-05T00:39:30.415Z,8.70
2022-11-05T00:42:15.968Z,8.70
2022-11-05T00:45:01.426Z,8.70
2022-11-05T00:47:47.656Z,8.70
2022-11-05T00:50:15.187Z,8.70
2022-11-05T00:52:57.875Z,8.60
2022-11-05T00:55:28.276Z,8.60
2022-11-05T00:57:56.424Z,8.60
2022-11-05T01:00:25.207Z,8.50
2022-11-05T01:02:52.611Z,8.80
2022-11-05T01:05:20.010Z,8.60
2022-11-05T01:07:47.220Z,8.60
2022-11-05T01:10:14.501Z,8.60
2022-11-05T01:12:41.700Z,8.60
2022-11-05T01:15:09.432Z,8.60
2022-11-05T01:17:36.708Z,8.50
2022-11-05T01:20:04.710Z,8.60
2022-11-05T01:22:31.954Z,8.60
2022-11-05T01:24:59.498Z,8.60
2022-11-05T01:27:26.674Z,8.70
2022-11-05T01:29:54.054Z,8.70
2022-11-05T01:32:21.293Z,8.70
2022-11-05T01:34:48.700Z,8.70
2022-11-05T01:37:15.915Z,8.80
2022-11-05T01:39:43.138Z,8.70
2022-11-05T01:42:23.530Z,8.70
2022-11-05T01:44:53.819Z,8.60
2022-11-05T01:47:30.079Z,8.60
2022-11-05T01:50:00.580Z,8.70
2022-11-05T01:52:30.181Z,8.70
2022-11-05T01:54:57.620Z,8.80
2022-11-05T01:57:24.991Z,8.70
2022-11-05T01:59:57.590Z,8.70
2022-11-05T02:02:25.588Z,8.70
2022-11-05T02:04:56.636Z,8.80
2022-11-05T02:07:25.593Z,8.80
2022-11-05T02:10:08.341Z,8.90
2022-11-05T02:12:37.919Z,8.80
2022-11-05T02:15:06.500Z,8.80
2022-11-05T02:17:45.730Z,8.80
2022-11-05T02:20:23.115Z,8.80
2022-11-05T02:23:02.045Z,8.90
2022-11-05T02:25:47.380Z,8.90
2022-11-05T02:28:48.619Z,8.80
2022-11-05T02:31:45.227Z,8.70
2022-11-05T02:34:53.894Z,8.60
2022-11-05T02:37:41.407Z,8.50
2022-11-05T02:40:24.944Z,8.60
2022-11-05T02:43:00.831Z,8.60
2022-11-05T02:45:42.948Z,8.60
2022-11-05T02:48:28.259Z,8.50
2022-11-05T02:51:05.070Z,8.50
2022-11-05T02:53:48.320Z,8.90
2022-11-05T02:56:24.696Z,8.70
2022-11-05T02:58:51.889Z,8.60
2022-11-05T03:01:19.162Z,8.50
2022-11-05T03:03:50.429Z,8.70
2022-11-05T03:06:35.697Z,8.70
2022-11-05T03:09:21.375Z,8.70
2022-11-05T03:12:21.541Z,8.60
2022-11-05T03:14:55.975Z,8.60
2022-11-05T03:17:35.075Z,8.70
2022-11-05T03:20:08.778Z,8.60
2022-11-05T03:22:42.650Z,8.60
2022-11-05T03:25:16.032Z,8.10
2022-11-05T03:27:47.811Z,8.20
2022-11-05T03:30:16.567Z,8.40
2022-11-05T03:32:53.648Z,8.30
2022-11-05T03:35:31.945Z,8.30
2022-11-05T03:38:04.340Z,8.00
2022-11-05T03:40:35.800Z,8.00
2022-11-05T03:43:07.755Z,8.10
2022-11-05T03:46:01.172Z,8.20
2022-11-05T03:48:30.758Z,8.10
2022-11-05T03:51:01.377Z,8.20
2022-11-05T03:53:31.973Z,8.40
2022-11-05T03:56:18.253Z,8.90
2022-11-05T03:58:46.786Z,9.10
2022-11-05T04:01:14.590Z,9.20
2022-11-05T04:03:42.041Z,9.00
2022-11-05T04:06:29.259Z,8.90
2022-11-05T04:09:15.251Z,9.00
2022-11-05T04:12:01.255Z,9.10
2022-11-05T04:14:28.588Z,9.10
2022-11-05T04:17:08.821Z,9.10
2022-11-05T04:19:56.819Z,9.20
2022-11-05T04:22:44.402Z,9.30
2022-11-05T04:25:12.809Z,9.30
2022-11-05T04:27:40.050Z,9.20
2022-11-05T04:30:19.990Z,9.10
2022-11-05T04:33:07.039Z,9.20
2022-11-05T04:36:02.339Z,9.30
2022-11-05T04:38:29.507Z,9.30
2022-11-05T04:41:16.249Z,9.20
2022-11-05T04:43:43.994Z,9.10
2022-11-05T04:46:11.503Z,8.80
2022-11-05T04:48:39.112Z,8.90
2022-11-05T04:51:06.921Z,8.90
2022-11-05T04:53:34.193Z,8.80
2022-11-05T04:56:17.756Z,8.60
2022-11-05T04:58:45.306Z,8.40
2022-11-05T05:01:24.001Z,8.30
2022-11-05T05:03:52.913Z,8.60
2022-11-05T05:06:20.692Z,8.60
2022-11-05T05:08:48.777Z,8.50
2022-11-05T05:11:18.646Z,8.40
2022-11-05T05:13:46.285Z,8.60
2022-11-05T05:16:25.290Z,8.70
2022-11-05T05:18:53.603Z,8.60
2022-11-05T05:21:40.565Z,8.60
2022-11-05T05:24:13.375Z,8.50
2022-11-05T05:26:46.383Z,8.50
2022-11-05T05:29:14.357Z,8.50
2022-11-05T05:31:41.785Z,8.40
2022-11-05T05:34:12.378Z,8.50
2022-11-05T05:36:39.870Z,8.50
2022-11-05T05:39:08.661Z,8.50
2022-11-05T05:41:35.963Z,8.70
2022-11-05T05:44:05.422Z,8.90
2022-11-05T05:46:32.936Z,8.70
2022-11-05T05:49:00.272Z,8.60
2022-11-05T05:51:27.559Z,8.50
2022-11-05T05:53:54.986Z,8.40
2022-11-05T05:56:22.183Z,8.20
2022-11-05T05:58:49.563Z,8.10
2022-11-05T06:01:19.619Z,8.10
2022-11-05T06:03:48.590Z,8.20
2022-11-05T06:06:21.227Z,8.20
2022-11-05T06:08:49.140Z,8.40
2022-11-05T06:11:16.431Z,8.30
2022-11-05T06:13:43.650Z,8.40
2022-11-05T06:16:11.183Z,8.20
2022-11-05T06:18:38.555Z,8.30
2022-11-05T06:21:10.466Z,8.10
2022-11-05T06:23:39.373Z,8.40
2022-11-05T06:26:12.833Z,8.40
2022-11-05T06:28:42.199Z,8.60
2022-11-05T06:31:10.827Z,8.50
2022-11-05T06:33:38.471Z,8.80
2022-11-05T06:36:07.339Z,8.90
2022-11-05T06:38:36.751Z,9.10
2022-11-05T06:41:09.009Z,9.20
2022-11-05T06:43:37.969Z,9.20
2022-11-05T06:46:05.930Z,9.20
2022-11-05T06:48:33.350Z,9.30
2022-11-05T06:51:00.722Z,9.30
2022-11-05T06:53:27.956Z,9.40
2022-11-05T06:55:55.199Z,9.40
2022-11-05T06:58:22.617Z,9.50
2022-11-05T07:00:50.190Z,9.60
2022-11-05T07:03:17.511Z,9.50
2022-11-05T07:05:48.151Z,9.50
2022-11-05T07:08:16.201Z,9.50
2022-11-05T07:10:43.580Z,9.60
2022-11-05T07:13:11.227Z,9.70
2022-11-05T07:15:38.978Z,9.80
2022-11-05T07:18:09.460Z,9.70
2022-11-05T07:20:36.828Z,9.80
2022-11-05T07:23:06.386Z,9.80
2022-11-05T07:25:34.854Z,9.80
2022-11-05T07:28:02.506Z,9.90
2022-11-05T07:30:30.812Z,9.90
2022-11-05T07:32:58.227Z,10.00
2022-11-05T07:35:26.338Z,10.00
2022-11-05T07:37:54.698Z,10.00
2022-11-05T07:40:23.739Z,10.00
2022-11-05T07:42:53.520Z,10.00
2022-11-05T07:45:21.623Z,10.10
2022-11-05T07:47:56.867Z,10.10
2022-11-05T07:50:27.836Z,10.10
2022-11-05T07:53:03.466Z,10.10
2022-11-05T07:55:31.127Z,10.20
2022-11-05T07:57:58.629Z,10.20
2022-11-05T08:00:28.032Z,10.30
2022-11-05T08:03:05.517Z,10.30
2022-11-05T08:05:39.175Z,10.40
2022-11-05T08:08:10.929Z,10.40
2022-11-05T08:10:38.855Z,10.40
2022-11-05T08:13:07.210Z,10.40
2022-11-05T08:15:35.426Z,10.50
2022-11-05T08:18:08.591Z,10.50
2022-11-05T08:20:36.918Z,10.60
2022-11-05T08:23:04.687Z,10.60
2022-11-05T08:25:32.489Z,10.60
2022-11-05T08:28:05.823Z,10.80
2022-11-05T08:30:33.229Z,10.80
2022-11-05T08:33:12.312Z,10.80
2022-11-05T08:35:40.215Z,10.80
2022-11-05T08:38:10.008Z,10.80
2022-11-05T08:40:37.486Z,10.80
2022-11-05T08:43:07.069Z,10.90
2022-11-05T08:45:38.298Z,11.00
2022-11-05T08:48:07.733Z,10.90
2022-11-05T08:50:35.816Z,11.00
2022-11-05T08:53:04.046Z,11.10
2022-11-05T08:55:31.995Z,11.10
2022-11-05T08:58:04.269Z,11.10
2022-11-05T09:00:34.947Z,11.10
2022-11-05T09:03:04.437Z,11.20
2022-11-05T09:05:37.719Z,11.20
2022-11-05T09:08:13.851Z,11.10
2022-11-05T09:10:42.195Z,11.30
2022-11-05T09:13:16.542Z,11.30
2022-11-05T09:15:46.778Z,11.20
2022-11-05T09:18:14.456Z,11.30
2022-11-05T09:20:42.287Z,11.30
2022-11-05T09:23:11.027Z,11.20
2022-11-05T09:25:38.890Z,11.30
2022-11-05T09:28:17.129Z,11.30
2022-11-05T09:30:51.049Z,11.40
2022-11-05T09:33:21.907Z,11.40
2022-11-05T09:35:49.200Z,11.40
2022-11-05T09:38:17.028Z,11.40
2022-11-05T09:40:56.119Z,11.50
2022-11-05T09:43:31.922Z,11.50
2022-11-05T09:46:04.645Z,11.50
2022-11-05T09:48:33.597Z,11.50
2022-11-05T09:51:01.343Z,11.50
2022-11-05T09:53:28.778Z,11.70
2022-11-05T09:55:58.765Z,11.80
2022-11-05T09:58:45.835Z,11.90
2022-11-05T10:01:22.401Z,11.80
2022-11-05T10:03:53.887Z,11.90
2022-11-05T10:06:24.335Z,11.80
2022-11-05T10:09:22.380Z,11.70
2022-11-05T10:12:15.107Z,11.70
2022-11-05T10:14:47.394Z,11.90
2022-11-05T10:17:26.593Z,11.90
2022-11-05T10:20:28.732Z,11.80
2022-11-05T10:23:10.546Z,11.80
2022-11-05T10:25:42.394Z,11.90
2022-11-05T10:28:16.229Z,12.00
2022-11-05T10:30:45.926Z,11.90
2022-11-05T10:33:19.871Z,11.90
2022-11-05T10:35:50.944Z,11.90
2022-11-05T10:38:18.199Z,11.90
2022-11-05T10:41:14.215Z,11.80
2022-11-05T10:43:48.936Z,11.80
2022-11-05T10:46:22.013Z,11.90
2022-11-05T10:49:14.854Z,12.20
2022-11-05T10:51:43.998Z,12.30
2022-11-05T10:54:19.320Z,12.30
2022-11-05T10:56:46.720Z,12.20
2022-11-05T10:59:26.251Z,12.20
2022-11-05T11:02:21.665Z,12.30
2022-11-05T11:04:58.051Z,12.30
2022-11-05T11:07:26.915Z,12.30
2022-11-05T11:09:54.491Z,12.40
2022-11-05T11:12:40.698Z,12.40
2022-11-05T11:15:24.371Z,12.30
2022-11-05T11:17:51.723Z,12.10
2022-11-05T11:20:31.315Z,12.20
2022-11-05T11:23:17.434Z,12.20
2022-11-05T11:25:50.728Z,12.10
2022-11-05T11:28:24.847Z,12.10
2022-11-05T11:30:58.315Z,12.10
2022-11-05T11:33:28.619Z,12.20
2022-11-05T11:35:56.352Z,12.40
2022-11-05T11:38:24.670Z,12.40
2022-11-05T11:41:00.153Z,12.50
2022-11-05T11:43:30.513Z,12.40
2022-11-05T11:46:04.859Z,12.30
2022-11-05T11:48:36.256Z,12.30
2022-11-05T11:51:21.258Z,12.20
2022-11-05T11:53:49.800Z,12.20
2022-11-05T11:56:20.856Z,12.40
2022-11-05T11:58:53.819Z,12.40
2022-11-05T12:01:33.828Z,12.30
2022-11-05T12:04:28.730Z,12.40
2022-11-05T12:07:23.570Z,12.40
2022-11-05T12:10:09.017Z,12.30
2022-11-05T12:12:55.190Z,12.30
2022-11-05T12:15:39.700Z,12.30
2022-11-05T12:18:28.519Z,12.20
2022-11-05T12:21:08.044Z,12.10
2022-11-05T12:23:48.185Z,12.00
2022-11-05T12:26:27.578Z,12.00
2022-11-05T12:29:23.425Z,12.00
2022-11-05T12:32:18.110Z,12.00
2022-11-05T12:35:23.331Z,12.10
2022-11-05T12:38:09.031Z,12.10
2022-11-05T12:40:57.834Z,12.10
2022-11-05T12:43:40.107Z,12.20
2022-11-05T12:46:20.129Z,12.30
2022-11-05T12:49:21.372Z,12.30
2022-11-05T12:52:05.792Z,12.10
2022-11-05T12:55:05.530Z,12.20
2022-11-05T12:57:37.265Z,12.10
2022-11-05T13:00:21.508Z,12.10
2022-11-05T13:02:54.654Z,11.90
2022-11-05T13:05:42.268Z,11.90
2022-11-05T13:08:21.807Z,11.80
2022-11-05T13:11:00.634Z,11.90
2022-11-05T13:13:38.900Z,12.10
2022-11-05T13:16:24.425Z,12.00
2022-11-05T13:18:58.796Z,12.10
2022-11-05T13:21:29.196Z,11.90
2022-11-05T13:24:11.193Z,11.80
2022-11-05T13:26:52.054Z,11.80
2022-11-05T13:29:34.293Z,11.80
2022-11-05T13:32:23.425Z,11.80
2022-11-05T13:35:02.973Z,11.80
2022-11-05T13:37:57.517Z,11.90
2022-11-05T13:40:37.744Z,12.00
2022-11-05T13:43:37.008Z,11.90
2022-11-05T13:46:07.102Z,11.80
2022-11-05T13:48:39.972Z,11.80
2022-11-05T13:51:10.274Z,11.70
2022-11-05T13:54:12.520Z,11.70
2022-11-05T13:56:58.187Z,11.70
2022-11-05T13:59:40.063Z,11.70
2022-11-05T14:02:28.052Z,11.50
2022-11-05T14:05:01.375Z,11.40
2022-11-05T14:07:45.381Z,11.40
2022-11-05T14:10:32.350Z,11.30
2022-11-05T14:13:22.660Z,11.30
2022-11-05T14:16:09.169Z,11.20
2022-11-05T14:18:48.561Z,11.10
2022-11-05T14:21:27.914Z,11.10
2022-11-05T14:23:56.279Z,11.00
2022-11-05T14:26:29.150Z,10.90
2022-11-05T14:29:05.289Z,10.90
2022-11-05T14:34:48.270Z,10.80
2022-11-05T14:37:26.611Z,10.80
2022-11-05T14:39:55.537Z,10.80
2022-11-05T14:42:33.912Z,10.80
2022-11-05T14:45:09.899Z,10.80
2022-11-05T14:47:41.941Z,10.90
2022-11-05T14:50:31.781Z,10.90
2022-11-05T14:53:22.766Z,10.80
2022-11-05T14:56:17.259Z,10.80
2022-11-05T14:58:45.816Z,10.80
2022-11-05T15:01:38.991Z,10.80
2022-11-05T15:04:29.448Z,10.70
2022-11-05T15:07:02.994Z,10.50
2022-11-05T15:09:49.082Z,10.50
2022-11-05T15:12:41.386Z,10.40
2022-11-05T15:15:28.589Z,10.40
2022-11-05T15:18:15.570Z,10.30
2022-11-05T15:20:46.600Z,10.30
2022-11-05T15:23:18.042Z,10.20
2022-11-05T15:26:02.969Z,10.20
2022-11-05T15:28:41.206Z,10.10
2022-11-05T15:31:14.603Z,10.10
2022-11-05T15:33:43.428Z,10.10
2022-11-05T15:36:23.499Z,10.10
2022-11-05T15:39:15.106Z,10.10
2022-11-05T15:41:38.744Z,10.00
2022-11-05T15:44:05.941Z,9.90
2022-11-05T15:46:33.205Z,9.80
2022-11-05T15:49:05.575Z,9.70
2022-11-05T15:51:33.444Z,9.50
2022-11-05T15:56:54.207Z,9.20
2022-11-05T15:59:24.043Z,9.10
2022-11-05T16:02:32.708Z,8.90
2022-11-05T16:05:06.780Z,8.80
2022-11-05T16:07:34.023Z,9.00
2022-11-05T16:10:02.462Z,8.80
2022-11-05T16:12:35.549Z,8.80
2022-11-05T16:15:08.576Z,8.90
2022-11-05T16:17:57.591Z,9.10
2022-11-05T16:20:27.692Z,8.90
2022-11-05T16:22:57.841Z,8.90
2022-11-05T16:25:40.317Z,8.80
2022-11-05T16:28:28.307Z,8.50
2022-11-05T16:31:04.461Z,8.60
2022-11-05T16:33:34.979Z,8.60
2022-11-05T16:36:02.219Z,8.60
2022-11-05T16:38:29.491Z,8.50
2022-11-05T16:40:57.058Z,8.40
2022-11-05T16:43:25.820Z,8.40
2022-11-05T16:45:55.491Z,8.30
2022-11-05T16:48:22.772Z,8.60
2022-11-05T16:50:50.291Z,8.70
2022-11-05T16:53:18.035Z,8.80
2022-11-05T16:55:46.271Z,8.90
2022-11-05T16:58:26.117Z,8.90
2022-11-05T17:01:01.000Z,9.00
2022-11-05T17:03:28.244Z,9.10
2022-11-05T17:05:55.660Z,9.20
2022-11-05T17:08:22.833Z,9.10
2022-11-05T17:10:50.202Z,9.00
2022-11-05T17:13:19.242Z,8.90
2022-11-05T17:15:48.537Z,8.80
2022-11-05T17:18:18.945Z,8.90
2022-11-05T17:20:50.046Z,9.20
2022-11-05T17:23:22.127Z,9.30
2022-11-05T17:25:51.909Z,9.10
2022-11-05T17:28:20.008Z,9.10
2022-11-05T17:30:52.868Z,9.00
2022-11-05T17:33:22.760Z,9.00
2022-11-05T17:35:50.928Z,8.90
2022-11-05T17:38:18.600Z,8.60
2022-11-05T17:40:46.208Z,8.50
2022-11-05T17:43:13.862Z,8.40
2022-11-05T17:45:47.058Z,8.30
2022-11-05T17:48:15.326Z,8.30
2022-11-05T17:50:47.957Z,9.00
2022-11-05T17:53:16.884Z,9.00
2022-11-05T17:55:45.606Z,9.30
2022-11-05T17:58:13.450Z,9.20
2022-11-05T18:00:42.071Z,9.00
2022-11-05T18:03:10.871Z,9.20
2022-11-05T18:05:40.153Z,9.20
2022-11-05T18:08:08.248Z,9.30
2022-11-05T18:10:39.612Z,9.20
2022-11-05T18:13:07.079Z,9.30
2022-11-05T18:15:36.372Z,9.10
2022-11-05T18:18:03.717Z,9.20
2022-11-05T18:20:31.359Z,9.10
2022-11-05T18:22:58.791Z,9.40
2022-11-05T18:25:26.495Z,9.30
2022-11-05T18:27:55.121Z,9.20
2022-11-05T18:30:22.304Z,9.20
2022-11-05T18:32:51.113Z,9.10
2022-11-05T18:35:18.461Z,9.00
2022-11-05T18:37:45.881Z,8.80
2022-11-05T18:40:13.479Z,9.00
2022-11-05T18:42:41.667Z,9.00
2022-11-05T18:45:10.061Z,9.00
2022-11-05T18:47:37.541Z,8.90
2022-11-05T18:50:06.839Z,9.20
2022-11-05T18:52:34.199Z,9.10
2022-11-05T18:55:01.764Z,9.20
2022-11-05T18:57:29.073Z,9.30
2022-11-05T18:59:56.357Z,9.00
2022-11-05T19:02:23.699Z,8.80
2022-11-05T19:05:22.014Z,8.60
2022-11-05T19:07:39.348Z,8.40
2022-11-05T19:10:07.547Z,8.50
2022-11-05T19:12:35.153Z,8.50
2022-11-05T19:15:03.328Z,8.80
2022-11-05T19:17:33.325Z,9.20
2022-11-05T19:20:01.297Z,9.10
2022-11-05T19:22:28.763Z,8.90
2022-11-05T19:24:56.126Z,8.80
2022-11-05T19:27:23.830Z,8.60
2022-11-05T19:29:51.342Z,8.40
2022-11-05T19:32:21.371Z,8.30
2022-11-05T19:34:48.801Z,8.10
2022-11-05T19:37:16.697Z,8.30
2022-11-05T19:39:44.060Z,8.20
2022-11-05T19:42:11.302Z,8.20
2022-11-05T19:44:38.694Z,8.40
2022-11-05T19:47:05.913Z,8.30
2022-11-05T19:49:33.331Z,8.10
2022-11-05T19:52:00.785Z,8.40
2022-11-05T19:54:29.567Z,8.40
2022-11-05T19:56:56.821Z,8.20
2022-11-05T19:59:25.105Z,8.10
2022-11-05T20:01:52.641Z,8.10
2022-11-05T20:04:20.040Z,7.90
2022-11-05T20:06:48.510Z,7.90
2022-11-05T20:09:23.499Z,7.90
2022-11-05T20:11:57.607Z,8.00
2022-11-05T20:14:26.308Z,7.80
2022-11-05T20:16:53.963Z,7.70
2022-11-05T20:19:22.827Z,7.50
2022-11-05T20:21:50.333Z,7.30
2022-11-05T20:24:24.732Z,7.40
2022-11-05T20:26:54.563Z,7.50
2022-11-05T20:29:23.063Z,7.80
2022-11-05T20:31:51.264Z,7.40
2022-11-05T20:34:18.574Z,7.00
2022-11-05T20:36:46.110Z,6.70
2022-11-05T20:39:13.503Z,6.50
2022-11-05T20:41:41.231Z,6.50
2022-11-05T20:44:08.699Z,6.40
2022-11-05T20:46:35.904Z,6.20
2022-11-05T20:49:03.487Z,6.00
2022-11-05T20:51:30.915Z,5.80
2022-11-05T20:53:59.943Z,5.80
2022-11-05T20:56:30.166Z,5.60
2022-11-05T20:58:58.970Z,5.60
2022-11-05T21:01:32.201Z,5.50
2022-11-05T21:04:03.091Z,5.40
2022-11-05T21:06:30.940Z,5.40
2022-11-05T21:08:58.520Z,5.40
2022-11-05T21:11:25.969Z,5.20
2022-11-05T21:13:53.296Z,5.10
2022-11-05T21:16:21.041Z,5.00
2022-11-05T21:18:48.551Z,5.00
2022-11-05T21:21:19.330Z,5.00
2022-11-05T21:23:47.120Z,5.20
2022-11-05T21:26:15.333Z,5.20
2022-11-05T21:28:42.742Z,5.20
2022-11-05T21:31:11.009Z,5.20
2022-11-05T21:33:38.458Z,5.20
2022-11-05T21:36:11.512Z,5.10
2022-11-05T21:38:39.148Z,5.20
2022-11-05T21:41:07.367Z,5.00
2022-11-05T21:43:34.676Z,5.10
2022-11-05T21:46:03.843Z,5.10
2022-11-05T21:48:31.756Z,5.10
2022-11-05T21:51:17.508Z,5.40
2022-11-05T21:54:02.927Z,5.40
2022-11-05T21:56:48.908Z,5.20
2022-11-05T21:59:37.279Z,5.20
2022-11-05T22:02:05.749Z,6.30
2022-11-05T22:04:38.674Z,6.10
2022-11-05T22:07:07.474Z,5.80
2022-11-05T22:09:34.835Z,5.50
2022-11-05T22:12:02.235Z,5.30
2022-11-05T22:14:29.544Z,5.20
2022-11-05T22:16:57.557Z,5.10
2022-11-05T22:19:25.430Z,5.00
2022-11-05T22:21:53.041Z,4.90
2022-11-05T22:24:20.766Z,4.80
2022-11-05T22:26:48.236Z,4.70
2022-11-05T22:29:16.086Z,4.60
2022-11-05T22:31:43.667Z,4.50
2022-11-05T22:34:11.660Z,4.50
2022-11-05T22:36:39.115Z,4.40
2022-11-05T22:39:07.133Z,4.40
2022-11-05T22:41:34.449Z,4.30
2022-11-05T22:44:03.363Z,4.40
2022-11-05T22:46:31.499Z,4.40
2022-11-05T22:48:59.790Z,4.40
2022-11-05T22:51:31.109Z,4.40
2022-11-05T22:53:59.176Z,4.30
2022-11-05T22:56:29.540Z,4.30
2022-11-05T22:58:57.207Z,4.30
2022-11-05T23:01:26.208Z,4.20
2022-11-05T23:03:55.609Z,4.30
2022-11-05T23:06:44.226Z,4.30
2022-11-05T23:09:37.774Z,4.30
2022-11-05T23:12:07.877Z,4.30
2022-11-05T23:14:36.648Z,4.20
2022-11-05T23:17:22.643Z,4.20
2022-11-05T23:20:08.422Z,4.30
2022-11-05T23:22:54.227Z,4.30
2022-11-05T23:25:23.491Z,4.20
2022-11-05T23:27:53.188Z,4.10
2022-11-05T23:30:22.739Z,4.00
2022-11-05T23:32:50.817Z,3.90
2022-11-05T23:35:38.407Z,3.90
2022-11-05T23:38:24.185Z,3.90
2022-11-05T23:41:09.940Z,3.80
2022-11-05T23:43:55.785Z,3.80
2022-11-05T23:46:41.714Z,3.80
2022-11-05T23:49:09.482Z,3.70
2022-11-05T23:51:36.636Z,3.70
2022-11-05T23:54:03.997Z,3.80
2022-11-05T23:56:31.950Z,3.80
2022-11-05T23:58:59.145Z,3.80
